sensor_id;sensor_type;location;lat;lon;timestamp;pressure;altitude;pressure_sealevel;temperature;humidity
55801;BME280;41730;51.960;20.158;2023-06-10T00:02:48;100071.21;;;21.44;57.40
55801;BME280;41730;51.960;20.158;2023-06-10T00:05:50;100075.20;;;21.53;57.14
55801;BME280;41730;51.960;20.158;2023-06-10T00:08:22;100075.42;;;21.66;57.08
55801;BME280;41730;51.960;20.158;2023-06-10T00:11:05;100079.27;;;21.60;57.18
55801;BME280;41730;51.960;20.158;2023-06-10T00:17:32;100079.85;;;21.57;56.96
55801;BME280;41730;51.960;20.158;2023-06-10T00:20:52;100080.79;;;21.53;56.89
55801;BME280;41730;51.960;20.158;2023-06-10T00:23:25;100079.41;;;21.48;56.92
55801;BME280;41730;51.960;20.158;2023-06-10T00:26:05;100080.27;;;21.44;57.11
55801;BME280;41730;51.960;20.158;2023-06-10T00:29:04;100080.17;;;21.37;57.48
55801;BME280;41730;51.960;20.158;2023-06-10T00:32:29;100087.27;;;21.46;57.11
55801;BME280;41730;51.960;20.158;2023-06-10T00:35:15;100085.19;;;21.42;57.05
55801;BME280;41730;51.960;20.158;2023-06-10T00:37:55;100084.64;;;21.31;57.47
55801;BME280;41730;51.960;20.158;2023-06-10T00:40:27;100084.40;;;21.33;57.35
55801;BME280;41730;51.960;20.158;2023-06-10T00:42:58;100087.17;;;21.28;57.43
55801;BME280;41730;51.960;20.158;2023-06-10T00:45:45;100087.48;;;21.21;57.61
55801;BME280;41730;51.960;20.158;2023-06-10T00:48:26;100079.77;;;21.19;57.82
55801;BME280;41730;51.960;20.158;2023-06-10T00:51:08;100093.14;;;21.19;58.31
55801;BME280;41730;51.960;20.158;2023-06-10T00:53:55;100090.45;;;21.04;59.01
55801;BME280;41730;51.960;20.158;2023-06-10T00:56:31;100099.01;;;21.07;59.18
55801;BME280;41730;51.960;20.158;2023-06-10T00:59:05;100104.91;;;21.04;59.22
55801;BME280;41730;51.960;20.158;2023-06-10T01:01:41;100101.39;;;20.97;59.24
55801;BME280;41730;51.960;20.158;2023-06-10T01:04:18;100103.83;;;20.93;59.38
55801;BME280;41730;51.960;20.158;2023-06-10T01:15:09;100103.89;;;21.12;59.33
55801;BME280;41730;51.960;20.158;2023-06-10T01:20:50;100106.98;;;21.19;58.72
55801;BME280;41730;51.960;20.158;2023-06-10T01:23:25;100112.77;;;21.14;58.71
55801;BME280;41730;51.960;20.158;2023-06-10T01:26:04;100119.65;;;21.14;58.61
55801;BME280;41730;51.960;20.158;2023-06-10T01:28:49;100122.15;;;20.97;58.88
55801;BME280;41730;51.960;20.158;2023-06-10T01:31:32;100118.41;;;20.92;59.08
55801;BME280;41730;51.960;20.158;2023-06-10T01:34:11;100122.07;;;20.88;59.16
55801;BME280;41730;51.960;20.158;2023-06-10T01:36:47;100124.77;;;20.94;59.08
55801;BME280;41730;51.960;20.158;2023-06-10T01:39:27;100129.23;;;21.12;58.78
55801;BME280;41730;51.960;20.158;2023-06-10T01:42:08;100129.33;;;21.25;58.27
55801;BME280;41730;51.960;20.158;2023-06-10T01:44:41;100132.06;;;21.11;58.91
55801;BME280;41730;51.960;20.158;2023-06-10T01:47:14;100130.02;;;20.91;59.55
55801;BME280;41730;51.960;20.158;2023-06-10T01:49:48;100129.39;;;20.76;59.97
55801;BME280;41730;51.960;20.158;2023-06-10T01:52:23;100132.71;;;20.59;60.46
55801;BME280;41730;51.960;20.158;2023-06-10T01:54:58;100133.13;;;20.64;60.58
55801;BME280;41730;51.960;20.158;2023-06-10T01:57:33;100138.91;;;20.74;60.12
55801;BME280;41730;51.960;20.158;2023-06-10T02:00:08;100141.14;;;20.63;60.48
55801;BME280;41730;51.960;20.158;2023-06-10T02:02:40;100140.14;;;20.50;61.06
55801;BME280;41730;51.960;20.158;2023-06-10T02:05:12;100139.20;;;20.41;61.28
55801;BME280;41730;51.960;20.158;2023-06-10T02:07:44;100143.39;;;20.40;61.40
55801;BME280;41730;51.960;20.158;2023-06-10T02:10:19;100144.85;;;20.33;61.72
55801;BME280;41730;51.960;20.158;2023-06-10T02:12:53;100144.83;;;20.40;61.45
55801;BME280;41730;51.960;20.158;2023-06-10T02:15:26;100141.52;;;20.44;60.78
55801;BME280;41730;51.960;20.158;2023-06-10T02:17:57;100141.67;;;20.32;60.61
55801;BME280;41730;51.960;20.158;2023-06-10T02:20:29;100142.94;;;20.17;60.29
55801;BME280;41730;51.960;20.158;2023-06-10T02:23:01;100143.63;;;20.17;59.49
55801;BME280;41730;51.960;20.158;2023-06-10T02:25:33;100143.71;;;20.12;59.03
55801;BME280;41730;51.960;20.158;2023-06-10T02:28:05;100146.73;;;20.09;58.61
55801;BME280;41730;51.960;20.158;2023-06-10T02:30:38;100140.59;;;19.99;58.34
55801;BME280;41730;51.960;20.158;2023-06-10T02:33:09;100147.48;;;20.12;56.97
55801;BME280;41730;51.960;20.158;2023-06-10T02:35:42;100144.02;;;20.29;55.48
55801;BME280;41730;51.960;20.158;2023-06-10T02:38:16;100146.05;;;20.29;54.67
55801;BME280;41730;51.960;20.158;2023-06-10T02:40:50;100147.84;;;20.18;53.77
55801;BME280;41730;51.960;20.158;2023-06-10T02:43:24;100151.02;;;19.99;53.96
55801;BME280;41730;51.960;20.158;2023-06-10T02:45:56;100150.20;;;19.96;53.38
55801;BME280;41730;51.960;20.158;2023-06-10T02:48:28;100148.59;;;19.94;52.35
55801;BME280;41730;51.960;20.158;2023-06-10T02:51:00;100151.46;;;20.03;51.82
55801;BME280;41730;51.960;20.158;2023-06-10T02:53:31;100152.72;;;20.17;50.93
55801;BME280;41730;51.960;20.158;2023-06-10T02:56:05;100158.55;;;20.21;50.45
55801;BME280;41730;51.960;20.158;2023-06-10T02:58:40;100161.65;;;20.12;49.84
55801;BME280;41730;51.960;20.158;2023-06-10T03:01:12;100163.55;;;20.12;49.56
55801;BME280;41730;51.960;20.158;2023-06-10T03:03:44;100159.02;;;20.19;49.64
55801;BME280;41730;51.960;20.158;2023-06-10T03:06:16;100160.64;;;20.45;49.27
55801;BME280;41730;51.960;20.158;2023-06-10T03:08:48;100161.93;;;20.57;48.28
55801;BME280;41730;51.960;20.158;2023-06-10T03:11:20;100165.14;;;20.52;47.90
55801;BME280;41730;51.960;20.158;2023-06-10T03:13:53;100162.30;;;20.52;47.82
55801;BME280;41730;51.960;20.158;2023-06-10T03:16:27;100160.42;;;20.75;47.53
55801;BME280;41730;51.960;20.158;2023-06-10T03:19:02;100158.10;;;21.03;47.12
55801;BME280;41730;51.960;20.158;2023-06-10T03:22:09;100158.61;;;21.13;46.47
55801;BME280;41730;51.960;20.158;2023-06-10T03:24:43;100161.23;;;21.11;45.94
55801;BME280;41730;51.960;20.158;2023-06-10T03:27:19;100162.67;;;20.98;45.77
55801;BME280;41730;51.960;20.158;2023-06-10T03:30:03;100161.66;;;20.82;46.05
55801;BME280;41730;51.960;20.158;2023-06-10T03:32:59;100166.80;;;20.71;46.10
55801;BME280;41730;51.960;20.158;2023-06-10T03:35:51;100169.16;;;20.73;46.21
55801;BME280;41730;51.960;20.158;2023-06-10T03:38:42;100177.66;;;20.66;46.18
55801;BME280;41730;51.960;20.158;2023-06-10T03:41:36;100178.48;;;20.53;46.61
55801;BME280;41730;51.960;20.158;2023-06-10T03:44:25;100178.88;;;20.34;46.98
55801;BME280;41730;51.960;20.158;2023-06-10T03:47:15;100182.66;;;20.26;47.12
55801;BME280;41730;51.960;20.158;2023-06-10T03:50:10;100180.79;;;20.23;47.31
55801;BME280;41730;51.960;20.158;2023-06-10T03:53:00;100184.12;;;20.11;47.65
55801;BME280;41730;51.960;20.158;2023-06-10T03:55:51;100185.73;;;20.01;48.05
55801;BME280;41730;51.960;20.158;2023-06-10T03:58:33;100178.76;;;20.01;48.33
55801;BME280;41730;51.960;20.158;2023-06-10T04:01:05;100182.69;;;20.04;48.02
55801;BME280;41730;51.960;20.158;2023-06-10T04:03:39;100185.54;;;20.07;47.79
55801;BME280;41730;51.960;20.158;2023-06-10T04:06:18;100182.67;;;20.18;47.52
55801;BME280;41730;51.960;20.158;2023-06-10T04:08:55;100183.85;;;20.26;47.20
55801;BME280;41730;51.960;20.158;2023-06-10T04:11:29;100187.48;;;20.18;47.22
55801;BME280;41730;51.960;20.158;2023-06-10T04:14:03;100189.10;;;20.01;47.53
55801;BME280;41730;51.960;20.158;2023-06-10T04:16:40;100192.84;;;19.94;47.91
55801;BME280;41730;51.960;20.158;2023-06-10T04:19:14;100192.75;;;19.97;47.94
55801;BME280;41730;51.960;20.158;2023-06-10T04:21:46;100195.76;;;19.97;47.97
55801;BME280;41730;51.960;20.158;2023-06-10T04:24:18;100194.89;;;19.97;48.08
55801;BME280;41730;51.960;20.158;2023-06-10T04:26:50;100199.41;;;19.94;48.27
55801;BME280;41730;51.960;20.158;2023-06-10T04:29:21;100196.73;;;19.91;48.45
55801;BME280;41730;51.960;20.158;2023-06-10T04:31:54;100199.99;;;19.98;48.61
55801;BME280;41730;51.960;20.158;2023-06-10T04:34:25;100206.49;;;20.00;48.50
55801;BME280;41730;51.960;20.158;2023-06-10T04:36:57;100207.84;;;20.02;48.59
55801;BME280;41730;51.960;20.158;2023-06-10T04:39:29;100210.38;;;20.13;48.57
55801;BME280;41730;51.960;20.158;2023-06-10T04:42:01;100208.94;;;20.20;48.54
55801;BME280;41730;51.960;20.158;2023-06-10T04:44:36;100209.55;;;20.36;48.42
55801;BME280;41730;51.960;20.158;2023-06-10T04:47:11;100209.61;;;20.43;48.34
55801;BME280;41730;51.960;20.158;2023-06-10T04:49:43;100203.69;;;20.45;48.30
55801;BME280;41730;51.960;20.158;2023-06-10T04:52:14;100212.34;;;20.45;48.43
55801;BME280;41730;51.960;20.158;2023-06-10T04:54:48;100208.71;;;20.48;48.46
55801;BME280;41730;51.960;20.158;2023-06-10T04:57:20;100212.42;;;20.57;48.28
55801;BME280;41730;51.960;20.158;2023-06-10T04:59:51;100212.10;;;20.64;48.25
55801;BME280;41730;51.960;20.158;2023-06-10T05:02:23;100212.44;;;20.70;48.24
55801;BME280;41730;51.960;20.158;2023-06-10T05:04:55;100210.15;;;20.89;48.05
55801;BME280;41730;51.960;20.158;2023-06-10T05:07:28;100213.34;;;21.08;47.70
55801;BME280;41730;51.960;20.158;2023-06-10T05:09:59;100211.99;;;21.18;47.66
55801;BME280;41730;51.960;20.158;2023-06-10T05:12:31;100211.88;;;21.33;47.50
55801;BME280;41730;51.960;20.158;2023-06-10T05:15:04;100212.83;;;21.58;47.23
55801;BME280;41730;51.960;20.158;2023-06-10T05:17:37;100214.86;;;21.85;46.85
55801;BME280;41730;51.960;20.158;2023-06-10T05:20:11;100213.62;;;22.08;46.45
55801;BME280;41730;51.960;20.158;2023-06-10T05:22:46;100214.46;;;22.24;46.19
55801;BME280;41730;51.960;20.158;2023-06-10T05:25:18;100220.56;;;22.45;45.86
55801;BME280;41730;51.960;20.158;2023-06-10T05:27:50;100218.89;;;22.69;45.36
55801;BME280;41730;51.960;20.158;2023-06-10T05:30:22;100220.95;;;22.78;45.29
55801;BME280;41730;51.960;20.158;2023-06-10T05:32:54;100222.31;;;22.92;45.27
55801;BME280;41730;51.960;20.158;2023-06-10T05:35:26;100224.66;;;23.11;44.96
55801;BME280;41730;51.960;20.158;2023-06-10T05:37:59;100223.58;;;23.40;44.57
55801;BME280;41730;51.960;20.158;2023-06-10T05:40:56;100221.84;;;23.55;44.32
55801;BME280;41730;51.960;20.158;2023-06-10T05:43:29;100223.16;;;23.68;44.36
55801;BME280;41730;51.960;20.158;2023-06-10T05:46:00;100224.76;;;23.94;43.95
55801;BME280;41730;51.960;20.158;2023-06-10T05:48:32;100224.36;;;24.06;43.65
55801;BME280;41730;51.960;20.158;2023-06-10T05:51:03;100225.88;;;24.10;43.48
55801;BME280;41730;51.960;20.158;2023-06-10T05:53:35;100227.34;;;24.08;43.42
55801;BME280;41730;51.960;20.158;2023-06-10T05:56:07;100227.65;;;24.16;43.66
55801;BME280;41730;51.960;20.158;2023-06-10T05:58:42;100229.08;;;24.21;43.77
55801;BME280;41730;51.960;20.158;2023-06-10T06:01:19;100225.95;;;24.33;43.41
55801;BME280;41730;51.960;20.158;2023-06-10T06:03:52;100228.66;;;24.41;43.35
55801;BME280;41730;51.960;20.158;2023-06-10T06:06:26;100230.52;;;24.55;43.03
55801;BME280;41730;51.960;20.158;2023-06-10T06:08:58;100232.21;;;24.57;43.14
55801;BME280;41730;51.960;20.158;2023-06-10T06:11:36;100231.58;;;24.73;43.10
55801;BME280;41730;51.960;20.158;2023-06-10T06:14:12;100237.48;;;24.87;42.64
55801;BME280;41730;51.960;20.158;2023-06-10T06:16:46;100233.09;;;24.93;42.84
55801;BME280;41730;51.960;20.158;2023-06-10T06:19:17;100234.69;;;25.03;42.81
55801;BME280;41730;51.960;20.158;2023-06-10T06:21:49;100232.46;;;24.97;42.83
55801;BME280;41730;51.960;20.158;2023-06-10T06:24:22;100237.15;;;24.92;43.02
55801;BME280;41730;51.960;20.158;2023-06-10T06:26:54;100236.31;;;24.93;43.23
55801;BME280;41730;51.960;20.158;2023-06-10T06:29:25;100238.58;;;24.98;43.20
55801;BME280;41730;51.960;20.158;2023-06-10T06:32:01;100237.27;;;25.15;42.99
55801;BME280;41730;51.960;20.158;2023-06-10T06:34:38;100239.23;;;25.27;42.73
55801;BME280;41730;51.960;20.158;2023-06-10T06:37:22;100243.20;;;25.30;42.33
55801;BME280;41730;51.960;20.158;2023-06-10T06:40:00;100239.80;;;25.28;42.27
55801;BME280;41730;51.960;20.158;2023-06-10T06:42:33;100241.44;;;25.23;42.57
55801;BME280;41730;51.960;20.158;2023-06-10T06:45:06;100245.27;;;25.29;42.70
55801;BME280;41730;51.960;20.158;2023-06-10T06:47:39;100239.89;;;25.41;42.22
55801;BME280;41730;51.960;20.158;2023-06-10T06:50:13;100242.75;;;25.48;42.10
55801;BME280;41730;51.960;20.158;2023-06-10T06:52:49;100239.98;;;25.61;42.03
55801;BME280;41730;51.960;20.158;2023-06-10T06:55:29;100244.09;;;25.69;42.27
55801;BME280;41730;51.960;20.158;2023-06-10T06:58:08;100245.48;;;25.88;42.03
55801;BME280;41730;51.960;20.158;2023-06-10T07:00:43;100247.34;;;25.92;41.84
55801;BME280;41730;51.960;20.158;2023-06-10T07:03:18;100246.85;;;25.92;41.76
55801;BME280;41730;51.960;20.158;2023-06-10T07:05:53;100251.98;;;25.89;41.69
55801;BME280;41730;51.960;20.158;2023-06-10T07:08:28;100249.41;;;25.88;41.78
55801;BME280;41730;51.960;20.158;2023-06-10T07:11:02;100250.63;;;25.91;41.68
55801;BME280;41730;51.960;20.158;2023-06-10T07:13:37;100249.77;;;25.89;42.03
55801;BME280;41730;51.960;20.158;2023-06-10T07:16:12;100249.67;;;26.04;41.57
55801;BME280;41730;51.960;20.158;2023-06-10T07:18:45;100261.61;;;26.10;41.47
55801;BME280;41730;51.960;20.158;2023-06-10T07:21:19;100260.77;;;26.18;41.46
55801;BME280;41730;51.960;20.158;2023-06-10T07:23:55;100261.30;;;26.08;41.25
55801;BME280;41730;51.960;20.158;2023-06-10T07:26:32;100267.45;;;26.02;41.55
55801;BME280;41730;51.960;20.158;2023-06-10T07:29:09;100263.59;;;25.99;41.61
55801;BME280;41730;51.960;20.158;2023-06-10T07:31:44;100261.18;;;25.96;41.62
55801;BME280;41730;51.960;20.158;2023-06-10T07:34:18;100263.31;;;25.97;41.67
55801;BME280;41730;51.960;20.158;2023-06-10T07:36:52;100263.96;;;26.03;41.58
55801;BME280;41730;51.960;20.158;2023-06-10T07:39:26;100258.91;;;26.14;41.38
55801;BME280;41730;51.960;20.158;2023-06-10T07:42:01;100259.16;;;26.33;41.07
55801;BME280;41730;51.960;20.158;2023-06-10T07:44:34;100261.27;;;26.35;40.91
55801;BME280;41730;51.960;20.158;2023-06-10T07:47:07;100257.43;;;26.39;39.46
55801;BME280;41730;51.960;20.158;2023-06-10T07:49:41;100259.00;;;26.31;39.34
55801;BME280;41730;51.960;20.158;2023-06-10T07:52:13;100258.61;;;26.32;38.99
55801;BME280;41730;51.960;20.158;2023-06-10T07:54:46;100255.79;;;26.22;38.86
55801;BME280;41730;51.960;20.158;2023-06-10T07:57:18;100264.20;;;26.28;38.63
55801;BME280;41730;51.960;20.158;2023-06-10T07:59:50;100261.38;;;26.31;39.24
55801;BME280;41730;51.960;20.158;2023-06-10T08:02:22;100262.14;;;26.47;38.81
55801;BME280;41730;51.960;20.158;2023-06-10T08:04:56;100265.52;;;26.59;37.60
55801;BME280;41730;51.960;20.158;2023-06-10T08:07:32;100265.65;;;26.50;37.86
55801;BME280;41730;51.960;20.158;2023-06-10T08:10:08;100262.58;;;26.44;37.23
55801;BME280;41730;51.960;20.158;2023-06-10T08:12:41;100261.99;;;26.54;37.09
55801;BME280;41730;51.960;20.158;2023-06-10T08:15:22;100261.08;;;26.46;37.60
55801;BME280;41730;51.960;20.158;2023-06-10T08:18:04;100260.30;;;26.45;36.73
55801;BME280;41730;51.960;20.158;2023-06-10T08:20:37;100264.78;;;26.42;35.60
55801;BME280;41730;51.960;20.158;2023-06-10T08:23:13;100262.17;;;26.39;36.05
55801;BME280;41730;51.960;20.158;2023-06-10T08:25:48;100268.89;;;26.58;36.15
55801;BME280;41730;51.960;20.158;2023-06-10T08:28:22;100264.38;;;26.59;35.17
55801;BME280;41730;51.960;20.158;2023-06-10T08:30:54;100265.70;;;26.44;35.04
55801;BME280;41730;51.960;20.158;2023-06-10T08:33:26;100262.41;;;26.40;35.42
55801;BME280;41730;51.960;20.158;2023-06-10T08:35:58;100264.73;;;26.55;33.59
55801;BME280;41730;51.960;20.158;2023-06-10T08:38:30;100263.91;;;26.47;33.47
55801;BME280;41730;51.960;20.158;2023-06-10T08:41:06;100271.27;;;26.32;33.33
55801;BME280;41730;51.960;20.158;2023-06-10T08:43:44;100261.41;;;26.37;33.92
55801;BME280;41730;51.960;20.158;2023-06-10T08:46:17;100267.64;;;26.52;33.62
55801;BME280;41730;51.960;20.158;2023-06-10T08:48:51;100257.27;;;26.61;32.30
55801;BME280;41730;51.960;20.158;2023-06-10T08:51:27;100267.40;;;26.61;32.33
55801;BME280;41730;51.960;20.158;2023-06-10T08:54:04;100266.89;;;26.64;33.10
55801;BME280;41730;51.960;20.158;2023-06-10T08:56:40;100262.74;;;26.79;33.46
55801;BME280;41730;51.960;20.158;2023-06-10T08:59:12;100266.05;;;26.92;32.92
55801;BME280;41730;51.960;20.158;2023-06-10T09:01:44;100264.19;;;27.09;31.26
55801;BME280;41730;51.960;20.158;2023-06-10T09:04:17;100272.21;;;26.99;30.84
55801;BME280;41730;51.960;20.158;2023-06-10T09:06:50;100270.83;;;26.85;31.04
55801;BME280;41730;51.960;20.158;2023-06-10T09:09:24;100270.04;;;26.85;30.46
55801;BME280;41730;51.960;20.158;2023-06-10T09:11:54;100272.40;;;26.77;30.95
55801;BME280;41730;51.960;20.158;2023-06-10T09:14:27;100275.86;;;26.73;30.66
55801;BME280;41730;51.960;20.158;2023-06-10T09:16:59;100268.71;;;26.83;30.60
55801;BME280;41730;51.960;20.158;2023-06-10T09:19:31;100271.80;;;27.02;30.53
55801;BME280;41730;51.960;20.158;2023-06-10T09:22:03;100267.04;;;27.11;30.97
55801;BME280;41730;51.960;20.158;2023-06-10T09:24:35;100269.57;;;27.19;31.54
55801;BME280;41730;51.960;20.158;2023-06-10T09:27:08;100267.90;;;27.15;31.94
55801;BME280;41730;51.960;20.158;2023-06-10T09:29:56;100268.11;;;27.28;32.08
55801;BME280;41730;51.960;20.158;2023-06-10T09:32:29;100267.84;;;27.50;31.60
55801;BME280;41730;51.960;20.158;2023-06-10T09:35:01;100269.71;;;27.52;30.57
55801;BME280;41730;51.960;20.158;2023-06-10T09:37:40;100272.05;;;27.33;30.40
55801;BME280;41730;51.960;20.158;2023-06-10T09:40:13;100267.25;;;27.15;30.70
55801;BME280;41730;51.960;20.158;2023-06-10T09:42:45;100272.48;;;27.05;29.95
55801;BME280;41730;51.960;20.158;2023-06-10T09:45:19;100273.27;;;26.95;30.30
55801;BME280;41730;51.960;20.158;2023-06-10T09:47:54;100277.05;;;27.00;29.80
55801;BME280;41730;51.960;20.158;2023-06-10T09:50:27;100276.80;;;26.83;29.93
55801;BME280;41730;51.960;20.158;2023-06-10T09:52:59;100276.65;;;26.68;31.20
55801;BME280;41730;51.960;20.158;2023-06-10T09:55:34;100274.02;;;26.77;29.98
55801;BME280;41730;51.960;20.158;2023-06-10T09:58:09;100274.39;;;26.77;28.88
55801;BME280;41730;51.960;20.158;2023-06-10T10:00:41;100271.34;;;26.71;29.57
55801;BME280;41730;51.960;20.158;2023-06-10T10:03:23;100280.83;;;26.85;30.17
55801;BME280;41730;51.960;20.158;2023-06-10T10:06:01;100276.13;;;27.04;29.74
55801;BME280;41730;51.960;20.158;2023-06-10T10:08:34;100281.10;;;26.93;30.42
55801;BME280;41730;51.960;20.158;2023-06-10T10:11:06;100281.27;;;26.76;31.50
55801;BME280;41730;51.960;20.158;2023-06-10T10:13:39;100276.68;;;26.67;32.08
55801;BME280;41730;51.960;20.158;2023-06-10T10:16:14;100272.85;;;26.59;32.55
55801;BME280;41730;51.960;20.158;2023-06-10T10:18:49;100273.73;;;26.57;30.83
55801;BME280;41730;51.960;20.158;2023-06-10T10:21:25;100277.88;;;26.55;28.40
55801;BME280;41730;51.960;20.158;2023-06-10T10:24:02;100274.85;;;26.55;26.64
55801;BME280;41730;51.960;20.158;2023-06-10T10:26:40;100278.52;;;26.51;26.95
55801;BME280;41730;51.960;20.158;2023-06-10T10:29:19;100272.13;;;26.50;27.92
55801;BME280;41730;51.960;20.158;2023-06-10T10:31:53;100268.90;;;26.50;28.56
55801;BME280;41730;51.960;20.158;2023-06-10T10:34:33;100275.05;;;26.68;28.86
55801;BME280;41730;51.960;20.158;2023-06-10T10:37:07;100277.26;;;26.52;28.98
55801;BME280;41730;51.960;20.158;2023-06-10T10:39:39;100278.45;;;26.31;29.30
55801;BME280;41730;51.960;20.158;2023-06-10T10:42:14;100277.03;;;26.20;29.25
55801;BME280;41730;51.960;20.158;2023-06-10T10:44:50;100281.20;;;26.25;29.71
55801;BME280;41730;51.960;20.158;2023-06-10T10:47:23;100283.51;;;26.40;30.34
55801;BME280;41730;51.960;20.158;2023-06-10T10:49:59;100286.26;;;26.42;30.39
55801;BME280;41730;51.960;20.158;2023-06-10T10:52:51;100282.97;;;26.60;30.19
55801;BME280;41730;51.960;20.158;2023-06-10T10:55:23;100279.46;;;26.69;30.09
55801;BME280;41730;51.960;20.158;2023-06-10T10:58:03;100287.48;;;26.69;29.62
55801;BME280;41730;51.960;20.158;2023-06-10T11:00:36;100286.98;;;26.66;30.13
55801;BME280;41730;51.960;20.158;2023-06-10T11:03:12;100285.45;;;26.66;30.58
55801;BME280;41730;51.960;20.158;2023-06-10T11:05:46;100283.99;;;26.58;30.81
55801;BME280;41730;51.960;20.158;2023-06-10T11:08:49;100282.02;;;26.65;29.83
55801;BME280;41730;51.960;20.158;2023-06-10T11:11:22;100282.69;;;26.56;29.44
55801;BME280;41730;51.960;20.158;2023-06-10T11:14:07;100276.41;;;26.53;29.50
55801;BME280;41730;51.960;20.158;2023-06-10T11:16:44;100280.30;;;26.66;29.03
55801;BME280;41730;51.960;20.158;2023-06-10T11:19:34;100273.98;;;26.64;29.12
55801;BME280;41730;51.960;20.158;2023-06-10T11:22:08;100267.73;;;26.69;29.63
55801;BME280;41730;51.960;20.158;2023-06-10T11:24:51;100271.59;;;26.89;29.47
55801;BME280;41730;51.960;20.158;2023-06-10T11:27:24;100266.44;;;26.98;29.83
55801;BME280;41730;51.960;20.158;2023-06-10T11:30:12;100270.09;;;26.98;28.37
55801;BME280;41730;51.960;20.158;2023-06-10T11:32:52;100269.86;;;26.70;29.43
55801;BME280;41730;51.960;20.158;2023-06-10T11:35:25;100267.70;;;26.70;29.21
55801;BME280;41730;51.960;20.158;2023-06-10T11:37:57;100264.32;;;26.82;29.23
55801;BME280;41730;51.960;20.158;2023-06-10T11:40:29;100259.60;;;26.86;29.29
55801;BME280;41730;51.960;20.158;2023-06-10T11:43:03;100262.20;;;27.02;28.43
55801;BME280;41730;51.960;20.158;2023-06-10T11:45:37;100263.30;;;27.15;26.80
55801;BME280;41730;51.960;20.158;2023-06-10T11:48:13;100259.56;;;26.98;28.31
55801;BME280;41730;51.960;20.158;2023-06-10T11:50:46;100265.66;;;26.96;29.74
55801;BME280;41730;51.960;20.158;2023-06-10T11:53:19;100257.55;;;26.90;29.90
55801;BME280;41730;51.960;20.158;2023-06-10T11:55:51;100255.17;;;26.90;30.10
55801;BME280;41730;51.960;20.158;2023-06-10T11:58:24;100258.58;;;26.90;30.02
55801;BME280;41730;51.960;20.158;2023-06-10T12:00:57;100250.67;;;26.94;30.46
55801;BME280;41730;51.960;20.158;2023-06-10T12:03:37;100256.59;;;27.02;30.32
55801;BME280;41730;51.960;20.158;2023-06-10T12:06:09;100256.21;;;27.12;30.09
55801;BME280;41730;51.960;20.158;2023-06-10T12:08:44;100252.02;;;27.20;30.02
55801;BME280;41730;51.960;20.158;2023-06-10T12:11:16;100242.42;;;27.21;30.30
55801;BME280;41730;51.960;20.158;2023-06-10T12:13:49;100237.64;;;27.14;30.59
55801;BME280;41730;51.960;20.158;2023-06-10T12:16:21;100233.77;;;27.26;30.46
55801;BME280;41730;51.960;20.158;2023-06-10T12:19:03;100239.33;;;27.33;30.89
55801;BME280;41730;51.960;20.158;2023-06-10T12:21:38;100229.29;;;27.38;31.00
55801;BME280;41730;51.960;20.158;2023-06-10T12:24:11;100237.96;;;27.25;30.66
55801;BME280;41730;51.960;20.158;2023-06-10T12:26:44;100239.39;;;27.17;30.93
55801;BME280;41730;51.960;20.158;2023-06-10T12:29:23;100235.13;;;27.08;30.61
55801;BME280;41730;51.960;20.158;2023-06-10T12:31:58;100231.83;;;26.93;30.47
55801;BME280;41730;51.960;20.158;2023-06-10T12:34:35;100239.98;;;26.93;30.63
55801;BME280;41730;51.960;20.158;2023-06-10T12:37:11;100228.08;;;26.94;29.76
55801;BME280;41730;51.960;20.158;2023-06-10T12:39:52;100225.33;;;27.02;30.00
55801;BME280;41730;51.960;20.158;2023-06-10T12:42:24;100227.18;;;27.19;30.00
55801;BME280;41730;51.960;20.158;2023-06-10T12:44:57;100226.25;;;27.23;29.84
55801;BME280;41730;51.960;20.158;2023-06-10T12:47:35;100222.56;;;27.29;29.52
55801;BME280;41730;51.960;20.158;2023-06-10T12:50:10;100226.28;;;27.37;27.95
55801;BME280;41730;51.960;20.158;2023-06-10T12:52:43;100228.16;;;27.21;28.61
55801;BME280;41730;51.960;20.158;2023-06-10T12:55:15;100218.31;;;27.22;28.67
55801;BME280;41730;51.960;20.158;2023-06-10T12:57:54;100218.17;;;27.31;27.27
55801;BME280;41730;51.960;20.158;2023-06-10T13:00:31;100220.60;;;27.41;26.84
55801;BME280;41730;51.960;20.158;2023-06-10T13:03:08;100211.61;;;27.40;25.64
55801;BME280;41730;51.960;20.158;2023-06-10T13:05:44;100223.41;;;27.31;25.24
55801;BME280;41730;51.960;20.158;2023-06-10T13:08:24;100223.95;;;27.31;25.04
55801;BME280;41730;51.960;20.158;2023-06-10T13:11:05;100219.67;;;27.46;25.19
55801;BME280;41730;51.960;20.158;2023-06-10T13:13:40;100209.41;;;27.51;25.36
55801;BME280;41730;51.960;20.158;2023-06-10T13:16:12;100215.06;;;27.52;25.24
55801;BME280;41730;51.960;20.158;2023-06-10T13:18:44;100199.17;;;27.63;24.60
55801;BME280;41730;51.960;20.158;2023-06-10T13:21:17;100207.10;;;27.62;24.52
55801;BME280;41730;51.960;20.158;2023-06-10T13:23:50;100202.33;;;27.53;23.73
55801;BME280;41730;51.960;20.158;2023-06-10T13:26:24;100201.77;;;27.60;23.15
55801;BME280;41730;51.960;20.158;2023-06-10T13:28:56;100205.77;;;27.60;23.33
55801;BME280;41730;51.960;20.158;2023-06-10T13:31:29;100202.08;;;27.59;23.45
55801;BME280;41730;51.960;20.158;2023-06-10T13:34:02;100202.61;;;27.46;23.63
55801;BME280;41730;51.960;20.158;2023-06-10T13:36:39;100203.23;;;27.26;23.66
55801;BME280;41730;51.960;20.158;2023-06-10T13:39:11;100201.89;;;27.35;23.24
55801;BME280;41730;51.960;20.158;2023-06-10T13:41:44;100200.44;;;27.35;23.22